createdAt,value
2017-10-11T00:01:41.927Z,10.70
2017-10-11T00:04:10.263Z,10.80
2017-10-11T00:06:37.816Z,10.90
2017-10-11T00:09:05.360Z,10.90
2017-10-11T00:11:33.707Z,10.80
2017-10-11T00:14:01.637Z,10.80
2017-10-11T00:16:29.577Z,10.90
2017-10-11T00:18:57.479Z,11.00
2017-10-11T00:21:24.996Z,11.00
2017-10-11T00:23:52.542Z,11.10
2017-10-11T00:26:20.105Z,11.10
2017-10-11T00:28:47.596Z,11.10
2017-10-11T00:31:15.095Z,11.10
2017-10-11T00:33:42.637Z,11.10
2017-10-11T00:36:10.132Z,11.20
2017-10-11T00:38:39.164Z,11.20
2017-10-11T00:41:06.675Z,11.20
2017-10-11T00:43:34.225Z,11.20
2017-10-11T00:46:01.727Z,11.20
2017-10-11T00:48:29.804Z,11.20
2017-10-11T00:50:57.344Z,11.30
2017-10-11T00:53:24.900Z,11.30
2017-10-11T00:55:52.412Z,11.30
2017-10-11T00:58:19.916Z,11.30
2017-10-11T01:00:47.524Z,11.30
2017-10-11T01:03:15.058Z,11.30
2017-10-11T01:05:42.588Z,11.30
2017-10-11T01:08:10.100Z,11.30
2017-10-11T01:10:37.663Z,11.30
2017-10-11T01:13:05.153Z,11.40
2017-10-11T01:15:32.651Z,11.40
2017-10-11T01:18:00.209Z,11.30
2017-10-11T01:20:27.699Z,11.30
2017-10-11T01:22:55.236Z,11.20
2017-10-11T01:25:22.749Z,11.00
2017-10-11T01:27:51.076Z,10.90
2017-10-11T01:30:18.612Z,10.90
2017-10-11T01:32:46.129Z,11.10
2017-10-11T01:35:13.673Z,11.20
2017-10-11T01:37:41.211Z,11.10
2017-10-11T01:40:09.139Z,11.20
2017-10-11T01:42:36.698Z,11.20
2017-10-11T01:45:04.606Z,11.20
2017-10-11T01:47:32.172Z,11.20
2017-10-11T01:49:59.681Z,11.10
2017-10-11T01:52:27.964Z,11.10
2017-10-11T01:54:55.479Z,10.90
2017-10-11T01:57:23.027Z,10.80
2017-10-11T01:59:50.527Z,10.70
2017-10-11T02:02:18.073Z,10.70
2017-10-11T02:04:45.980Z,10.70
2017-10-11T02:07:13.487Z,10.70
2017-10-11T02:09:41.021Z,10.80
2017-10-11T02:12:09.286Z,10.80
2017-10-11T02:14:36.849Z,10.80
2017-10-11T02:17:04.449Z,10.80
2017-10-11T02:19:32.004Z,10.60
2017-10-11T02:21:59.573Z,10.70
2017-10-11T02:24:27.107Z,10.60
2017-10-11T02:26:54.685Z,10.60
2017-10-11T02:29:22.217Z,10.50
2017-10-11T02:31:49.717Z,10.40
2017-10-11T02:34:17.241Z,10.30
2017-10-11T02:36:44.742Z,10.30
2017-10-11T02:39:13.068Z,10.30
2017-10-11T02:41:40.581Z,10.40
2017-10-11T02:44:08.491Z,10.40
2017-10-11T02:46:36.028Z,10.60
2017-10-11T02:49:03.581Z,10.60
2017-10-11T02:51:31.254Z,10.80
2017-10-11T02:53:58.749Z,10.70
2017-10-11T02:56:26.277Z,10.80
2017-10-11T02:58:53.811Z,10.90
2017-10-11T03:01:22.079Z,10.90
2017-10-11T03:03:49.977Z,11.00
2017-10-11T03:06:17.517Z,11.00
2017-10-11T03:08:45.074Z,10.90
2017-10-11T03:11:13.336Z,11.00
2017-10-11T03:13:40.908Z,11.10
2017-10-11T03:16:09.187Z,11.20
2017-10-11T03:18:36.709Z,11.20
2017-10-11T03:21:04.243Z,11.20
2017-10-11T03:23:31.749Z,11.20
2017-10-11T03:25:59.293Z,11.20
2017-10-11T03:28:26.789Z,11.20
2017-10-11T03:30:54.681Z,11.10
2017-10-11T03:33:22.242Z,11.00
2017-10-11T03:35:50.160Z,10.90
2017-10-11T03:38:18.427Z,10.80
2017-10-11T03:40:46.728Z,10.70
2017-10-11T03:43:14.232Z,10.60
2017-10-11T03:45:41.724Z,10.50
2017-10-11T03:48:09.660Z,10.50
2017-10-11T03:50:37.211Z,10.40
2017-10-11T03:53:04.757Z,10.40
2017-10-11T03:55:32.264Z,10.50
2017-10-11T03:57:59.808Z,10.50
2017-10-11T04:00:27.365Z,10.60
2017-10-11T04:02:54.905Z,10.70
2017-10-11T04:05:23.269Z,10.80
2017-10-11T04:07:50.817Z,10.80
2017-10-11T04:10:18.349Z,10.90
2017-10-11T04:12:45.855Z,10.90
2017-10-11T04:15:13.384Z,11.00
2017-10-11T04:17:40.912Z,11.10
2017-10-11T04:20:08.444Z,11.10
2017-10-11T04:22:35.937Z,11.20
2017-10-11T04:25:03.464Z,11.20
2017-10-11T04:27:31.004Z,11.20
2017-10-11T04:29:59.005Z,11.20
2017-10-11T04:32:26.548Z,11.30
2017-10-11T04:34:54.078Z,11.30
2017-10-11T04:37:21.613Z,11.20
2017-10-11T04:39:49.915Z,11.30
2017-10-11T04:42:17.448Z,11.10
2017-10-11T04:44:45.001Z,11.00
2017-10-11T04:47:12.524Z,10.90
2017-10-11T04:49:40.029Z,11.00
2017-10-11T04:52:08.696Z,10.90
2017-10-11T04:54:37.011Z,10.90
2017-10-11T04:57:04.906Z,10.90
2017-10-11T04:59:32.644Z,10.80
2017-10-11T05:02:00.184Z,10.80
2017-10-11T05:04:28.092Z,10.70
2017-10-11T05:06:55.594Z,10.70
2017-10-11T05:09:23.138Z,10.60
2017-10-11T05:11:50.684Z,10.50
2017-10-11T05:14:18.218Z,10.50
2017-10-11T05:16:45.728Z,10.50
2017-10-11T05:19:14.056Z,10.60
2017-10-11T05:21:41.567Z,10.60
2017-10-11T05:24:09.476Z,10.60
2017-10-11T05:26:37.024Z,10.60
2017-10-11T05:29:04.917Z,10.70
2017-10-11T05:31:32.464Z,10.50
2017-10-11T05:34:00.006Z,10.40
2017-10-11T05:36:27.528Z,10.50
2017-10-11T05:38:55.100Z,10.40
2017-10-11T05:41:23.415Z,10.40
2017-10-11T05:43:50.988Z,10.40
2017-10-11T05:46:18.939Z,10.40
2017-10-11T05:48:46.473Z,10.30
2017-10-11T05:51:14.443Z,10.20
2017-10-11T05:53:42.772Z,10.20
2017-10-11T05:56:10.317Z,10.20
2017-10-11T05:58:37.837Z,10.20
2017-10-11T06:01:06.003Z,10.10
2017-10-11T06:03:34.064Z,10.00
2017-10-11T06:06:02.632Z,10.00
2017-10-11T06:08:31.487Z,10.00
2017-10-11T06:10:59.235Z,10.10
2017-10-11T06:13:27.118Z,10.20
2017-10-11T06:15:54.945Z,10.30
2017-10-11T06:18:23.040Z,10.50
2017-10-11T06:20:51.762Z,10.70
2017-10-11T06:23:19.859Z,10.90
2017-10-11T06:25:48.195Z,11.20
2017-10-11T06:28:16.764Z,11.50
2017-10-11T06:30:45.294Z,11.60
2017-10-11T06:33:13.979Z,11.70
2017-10-11T06:35:42.515Z,11.80
2017-10-11T06:38:10.514Z,11.50
2017-10-11T06:40:39.114Z,11.40
2017-10-11T06:43:07.732Z,11.50
2017-10-11T06:45:35.479Z,11.70
2017-10-11T06:48:03.945Z,11.80
2017-10-11T06:50:32.044Z,11.90
2017-10-11T06:53:00.461Z,11.80
2017-10-11T06:55:28.502Z,11.80
2017-10-11T06:57:56.462Z,11.70
2017-10-11T07:00:24.468Z,11.70
2017-10-11T07:02:52.915Z,11.60
2017-10-11T07:05:20.864Z,11.80
2017-10-11T07:07:48.904Z,11.90
2017-10-11T07:10:17.005Z,12.00
2017-10-11T07:12:44.978Z,11.90
2017-10-11T07:15:13.016Z,11.90
2017-10-11T07:17:41.989Z,11.80
2017-10-11T07:20:09.923Z,11.70
2017-10-11T07:22:37.852Z,11.80
2017-10-11T07:25:07.011Z,12.00
2017-10-11T07:27:35.437Z,12.30
2017-10-11T07:30:03.524Z,12.60
2017-10-11T07:32:31.443Z,12.80
2017-10-11T07:34:59.415Z,13.00
2017-10-11T07:37:27.430Z,13.10
2017-10-11T07:39:55.492Z,13.30
2017-10-11T07:42:23.985Z,13.50
2017-10-11T07:44:52.122Z,13.70
2017-10-11T07:47:20.180Z,13.90
2017-10-11T07:49:48.135Z,14.10
2017-10-11T07:52:16.116Z,14.40
2017-10-11T07:54:45.586Z,14.60
2017-10-11T07:57:13.778Z,14.90
2017-10-11T07:59:41.835Z,15.10
2017-10-11T08:02:09.866Z,15.50
2017-10-11T08:04:37.831Z,15.70
2017-10-11T08:07:06.717Z,16.00
2017-10-11T08:09:35.894Z,16.30
2017-10-11T08:12:04.157Z,16.60
2017-10-11T08:14:32.310Z,17.30
2017-10-11T08:17:00.368Z,17.60
2017-10-11T08:19:28.316Z,17.60
2017-10-11T08:21:56.577Z,18.00
2017-10-11T08:24:24.734Z,18.30
2017-10-11T08:26:52.536Z,18.40
2017-10-11T08:29:21.271Z,18.60
2017-10-11T08:31:49.110Z,18.80
2017-10-11T08:34:16.967Z,19.10
2017-10-11T08:36:44.837Z,19.70
2017-10-11T08:39:13.055Z,20.40
2017-10-11T08:41:40.942Z,20.90
2017-10-11T08:44:09.726Z,20.90
2017-10-11T08:46:37.653Z,20.40
2017-10-11T08:49:05.583Z,20.60
2017-10-11T08:51:34.391Z,20.90
2017-10-11T08:54:02.910Z,21.90
2017-10-11T08:56:30.729Z,22.20
2017-10-11T08:58:58.629Z,22.20
2017-10-11T09:01:26.870Z,21.90
2017-10-11T09:03:54.897Z,21.20
2017-10-11T09:06:22.697Z,21.40
2017-10-11T09:08:51.656Z,21.60
2017-10-11T09:11:20.345Z,21.80
2017-10-11T09:13:47.968Z,21.30
2017-10-11T09:16:15.515Z,20.80
2017-10-11T09:18:43.191Z,21.00
2017-10-11T09:21:10.774Z,20.80
2017-10-11T09:23:38.367Z,20.80
2017-10-11T09:26:05.993Z,20.60
2017-10-11T09:28:33.585Z,20.90
2017-10-11T09:31:01.194Z,21.10
2017-10-11T09:33:28.779Z,21.50
2017-10-11T09:35:56.401Z,22.20
2017-10-11T09:38:24.758Z,22.70
2017-10-11T09:40:52.950Z,23.30
2017-10-11T09:43:21.365Z,24.00
2017-10-11T09:45:49.093Z,24.00
2017-10-11T09:48:17.419Z,24.00
2017-10-11T09:50:45.100Z,24.00
2017-10-11T09:53:13.834Z,24.20
2017-10-11T09:55:41.851Z,24.40
2017-10-11T09:58:09.824Z,24.50
2017-10-11T10:00:37.508Z,25.10
2017-10-11T10:03:05.671Z,25.70
2017-10-11T10:05:33.556Z,25.80
2017-10-11T10:08:02.389Z,24.60
2017-10-11T10:10:30.443Z,24.70
2017-10-11T10:12:58.939Z,24.90
2017-10-11T10:15:27.527Z,25.10
2017-10-11T10:17:55.083Z,25.50
2017-10-11T10:20:23.372Z,25.40
2017-10-11T10:22:51.375Z,25.20
2017-10-11T10:25:18.952Z,24.80
2017-10-11T10:27:47.301Z,24.70
2017-10-11T10:30:15.229Z,24.90
2017-10-11T10:35:12.843Z,23.30
2017-10-11T10:37:40.824Z,22.70
2017-10-11T10:40:09.176Z,22.90
2017-10-11T10:42:36.677Z,22.00
2017-10-11T10:45:04.205Z,21.50
2017-10-11T10:47:32.161Z,21.70
2017-10-11T10:50:00.088Z,22.20
2017-10-11T10:52:28.433Z,22.60
2017-10-11T10:54:56.755Z,22.40
2017-10-11T10:57:24.667Z,22.10
2017-10-11T10:59:52.598Z,22.00
2017-10-11T11:02:20.890Z,21.60
2017-10-11T11:04:48.545Z,21.20
2017-10-11T11:07:16.301Z,20.70
2017-10-11T11:12:12.900Z,20.20
2017-10-11T11:14:40.453Z,20.30
2017-10-11T11:17:07.965Z,21.20
2017-10-11T11:19:35.904Z,22.20
2017-10-11T11:22:04.908Z,22.80
2017-10-11T11:24:33.079Z,23.10
2017-10-11T11:27:01.364Z,23.70
2017-10-11T11:29:29.323Z,23.20
2017-10-11T11:31:57.251Z,22.90
2017-10-11T11:34:25.166Z,22.50
2017-10-11T11:36:53.131Z,22.10
2017-10-11T11:39:21.484Z,21.70
2017-10-11T11:41:49.890Z,21.60
2017-10-11T11:44:18.194Z,21.30
2017-10-11T11:46:46.541Z,21.20
2017-10-11T11:49:14.965Z,21.00
2017-10-11T11:51:43.311Z,21.20
2017-10-11T11:54:11.217Z,21.50
2017-10-11T11:56:38.737Z,21.50
2017-10-11T11:59:06.264Z,21.70
2017-10-11T12:01:34.196Z,21.80
2017-10-11T12:04:02.173Z,21.30
2017-10-11T12:06:30.547Z,21.00
2017-10-11T12:08:58.443Z,21.70
2017-10-11T12:11:26.031Z,22.70
2017-10-11T12:13:54.318Z,24.10
2017-10-11T12:16:21.807Z,25.10
2017-10-11T12:18:49.752Z,25.40
2017-10-11T12:21:17.257Z,25.90
2017-10-11T12:23:45.932Z,26.10
2017-10-11T12:26:13.483Z,26.10
2017-10-11T12:28:42.336Z,25.60
2017-10-11T12:31:11.266Z,25.60
2017-10-11T12:33:38.848Z,25.40
2017-10-11T12:36:06.723Z,24.80
2017-10-11T12:38:34.561Z,23.70
2017-10-11T12:41:02.192Z,22.70
2017-10-11T12:43:30.627Z,23.10
2017-10-11T12:45:58.598Z,23.40
2017-10-11T12:48:26.899Z,23.70
2017-10-11T12:50:55.183Z,24.30
2017-10-11T12:53:23.538Z,24.90
2017-10-11T12:55:52.241Z,25.30
2017-10-11T12:58:20.867Z,25.50
2017-10-11T13:00:48.775Z,26.00
2017-10-11T13:03:16.498Z,25.40
2017-10-11T13:05:44.461Z,25.90
2017-10-11T13:08:12.631Z,26.30
2017-10-11T13:10:40.573Z,25.70
2017-10-11T13:13:08.148Z,25.70
2017-10-11T13:15:36.161Z,26.30
2017-10-11T13:18:04.096Z,25.60
2017-10-11T13:20:32.305Z,25.40
2017-10-11T13:22:59.836Z,25.60
2017-10-11T13:25:27.376Z,25.90
2017-10-11T13:27:55.062Z,25.80
2017-10-11T13:30:22.593Z,26.40
2017-10-11T13:32:50.288Z,26.10
2017-10-11T13:35:18.484Z,25.60
2017-10-11T13:37:46.066Z,24.80
2017-10-11T13:40:13.589Z,24.00
2017-10-11T13:42:41.339Z,24.30
2017-10-11T13:45:09.273Z,24.40
2017-10-11T13:47:37.750Z,24.60
2017-10-11T13:50:06.321Z,24.40
2017-10-11T13:52:34.624Z,24.60
2017-10-11T13:55:02.314Z,24.60
2017-10-11T13:57:29.928Z,24.50
2017-10-11T13:59:58.200Z,24.90
2017-10-11T14:02:25.701Z,25.30
2017-10-11T14:04:53.279Z,26.10
2017-10-11T14:07:21.212Z,26.60
2017-10-11T14:09:48.897Z,26.10
2017-10-11T14:12:16.397Z,25.80
2017-10-11T14:14:44.694Z,25.50
2017-10-11T14:17:13.018Z,25.40
2017-10-11T14:19:40.525Z,25.30
2017-10-11T14:22:08.217Z,25.10
2017-10-11T14:24:35.785Z,24.90
2017-10-11T14:27:03.567Z,24.60
2017-10-11T14:29:31.069Z,24.40
2017-10-11T14:31:58.982Z,24.60
2017-10-11T14:34:26.521Z,24.50
2017-10-11T14:36:55.287Z,24.70
2017-10-11T14:39:22.860Z,24.90
2017-10-11T14:41:50.368Z,25.00
2017-10-11T14:44:18.047Z,24.40
2017-10-11T14:46:45.568Z,24.30
2017-10-11T14:49:13.131Z,23.90
2017-10-11T14:51:41.039Z,24.00
2017-10-11T14:54:08.539Z,23.90
2017-10-11T14:56:36.858Z,23.80
2017-10-11T14:59:04.771Z,23.50
2017-10-11T15:01:33.090Z,23.50
2017-10-11T15:04:00.589Z,23.60
2017-10-11T15:06:28.106Z,23.70
2017-10-11T15:08:55.638Z,23.70
2017-10-11T15:11:23.163Z,23.90
2017-10-11T15:13:50.880Z,24.10
2017-10-11T15:16:18.460Z,24.00
2017-10-11T15:18:46.100Z,24.20
2017-10-11T15:21:13.613Z,23.70
2017-10-11T15:23:41.147Z,23.50
2017-10-11T15:26:08.644Z,23.30
2017-10-11T15:28:36.960Z,23.10
2017-10-11T15:31:04.493Z,22.50
2017-10-11T15:33:32.174Z,21.90
2017-10-11T15:35:59.679Z,21.00
2017-10-11T15:38:27.395Z,20.50
2017-10-11T15:40:55.320Z,20.10
2017-10-11T15:43:23.221Z,19.80
2017-10-11T15:45:51.192Z,19.60
2017-10-11T15:48:18.759Z,19.50
2017-10-11T15:50:46.304Z,19.30
2017-10-11T15:53:14.205Z,19.30
2017-10-11T15:55:41.713Z,19.30
2017-10-11T15:58:09.652Z,19.20
2017-10-11T16:00:37.920Z,19.10
2017-10-11T16:03:05.844Z,18.90
2017-10-11T16:05:33.372Z,18.90
2017-10-11T16:08:00.876Z,18.80
2017-10-11T16:10:28.414Z,18.60
2017-10-11T16:12:57.431Z,18.60
2017-10-11T16:15:24.964Z,18.20
2017-10-11T16:17:53.467Z,17.80
2017-10-11T16:20:21.725Z,17.40
2017-10-11T16:22:50.396Z,17.00
2017-10-11T16:25:17.924Z,16.70
2017-10-11T16:27:45.447Z,16.60
2017-10-11T16:30:13.519Z,16.40
2017-10-11T16:32:42.163Z,16.10
2017-10-11T16:35:10.464Z,15.90
2017-10-11T16:37:37.999Z,15.60
2017-10-11T16:40:06.534Z,15.40
2017-10-11T16:42:34.029Z,15.10
2017-10-11T16:45:02.355Z,15.00
2017-10-11T16:47:29.852Z,14.80
2017-10-11T16:49:58.108Z,14.70
2017-10-11T16:52:25.797Z,14.50
2017-10-11T16:54:53.329Z,14.40
2017-10-11T16:57:20.830Z,14.20
2017-10-11T16:59:48.343Z,14.10
2017-10-11T17:02:15.890Z,14.00
2017-10-11T17:04:43.732Z,13.90
2017-10-11T17:07:11.672Z,13.80
2017-10-11T17:09:39.564Z,13.80
2017-10-11T17:12:07.873Z,13.80
2017-10-11T17:14:35.556Z,13.70
2017-10-11T17:17:03.300Z,13.60
2017-10-11T17:19:30.820Z,13.40
2017-10-11T17:21:59.092Z,13.30
2017-10-11T17:24:27.024Z,13.30
2017-10-11T17:26:54.509Z,13.10
2017-10-11T17:29:22.456Z,12.90
2017-10-11T17:31:50.712Z,12.80
2017-10-11T17:34:18.211Z,12.80
2017-10-11T17:36:45.758Z,12.70
2017-10-11T17:39:13.250Z,12.60
2017-10-11T17:41:41.762Z,12.60
2017-10-11T17:44:09.492Z,12.50
2017-10-11T17:46:37.771Z,12.40
2017-10-11T17:49:06.071Z,12.30
2017-10-11T17:51:34.340Z,12.30
2017-10-11T17:54:01.873Z,12.30
2017-10-11T17:56:30.139Z,12.20
2017-10-11T17:58:58.395Z,12.10
2017-10-11T18:01:25.936Z,12.10
2017-10-11T18:03:54.943Z,12.00
2017-10-11T18:06:24.278Z,11.80
2017-10-11T18:08:52.803Z,11.80
2017-10-11T18:11:20.321Z,11.70
2017-10-11T18:13:48.106Z,11.70
2017-10-11T18:16:15.608Z,11.60
2017-10-11T18:18:44.240Z,11.50
2017-10-11T18:21:12.236Z,11.60
2017-10-11T18:23:40.156Z,11.50
2017-10-11T18:26:07.688Z,11.40
2017-10-11T18:28:35.180Z,11.40
2017-10-11T18:31:03.497Z,11.30
2017-10-11T18:33:30.993Z,11.20
2017-10-11T18:38:27.506Z,11.10
2017-10-11T18:40:55.439Z,11.00
2017-10-11T18:43:23.566Z,11.00
2017-10-11T18:45:51.724Z,10.90
2017-10-11T18:48:19.259Z,10.90
2017-10-11T18:50:47.563Z,10.90
2017-10-11T18:53:15.544Z,10.90
2017-10-11T18:55:43.624Z,10.90
2017-10-11T18:58:11.136Z,10.90
2017-10-11T19:00:39.463Z,10.90
2017-10-11T19:03:07.418Z,10.90
2017-10-11T19:05:35.434Z,10.90
2017-10-11T19:08:03.715Z,10.80
2017-10-11T19:10:31.300Z,10.70
2017-10-11T19:12:59.957Z,10.70
2017-10-11T19:15:27.463Z,10.60
2017-10-11T19:17:55.410Z,10.60
2017-10-11T19:20:23.342Z,10.50
2017-10-11T19:22:51.716Z,10.40
2017-10-11T19:25:20.045Z,10.40
2017-10-11T19:27:47.587Z,10.30
2017-10-11T19:30:16.312Z,10.40
2017-10-11T19:32:43.861Z,10.30
2017-10-11T19:35:11.515Z,10.20
2017-10-11T19:37:39.418Z,10.20
2017-10-11T19:40:07.048Z,10.10
2017-10-11T19:42:34.669Z,10.20
2017-10-11T19:45:02.417Z,10.10
2017-10-11T19:47:30.316Z,10.00
2017-10-11T19:49:58.635Z,9.80
2017-10-11T19:52:26.562Z,9.90
2017-10-11T19:54:54.100Z,9.80
2017-10-11T19:57:22.378Z,9.80
2017-10-11T19:59:49.942Z,9.70
2017-10-11T20:02:17.455Z,9.70
2017-10-11T20:04:45.022Z,9.60
2017-10-11T20:07:12.556Z,9.60
2017-10-11T20:09:40.448Z,9.60
2017-10-11T20:12:08.386Z,9.50
2017-10-11T20:14:35.909Z,9.50
2017-10-11T20:17:04.602Z,9.40
2017-10-11T20:19:32.880Z,9.40
2017-10-11T20:22:00.424Z,9.40
2017-10-11T20:24:28.920Z,9.40
2017-10-11T20:26:56.689Z,9.40
2017-10-11T20:29:24.641Z,9.40
2017-10-11T20:31:52.153Z,9.30
2017-10-11T20:34:20.098Z,9.30
2017-10-11T20:36:47.620Z,9.20
2017-10-11T20:39:16.626Z,9.20
2017-10-11T20:41:44.892Z,9.20
2017-10-11T20:44:12.425Z,9.10
2017-10-11T20:46:40.702Z,9.10
2017-10-11T20:49:08.220Z,9.10
2017-10-11T20:51:36.175Z,9.10
2017-10-11T20:54:04.437Z,9.00
2017-10-11T20:56:31.932Z,8.90
2017-10-11T20:59:00.515Z,8.80
2017-10-11T21:01:28.007Z,8.80
2017-10-11T21:03:55.558Z,8.80
2017-10-11T21:06:23.086Z,8.80
2017-10-11T21:08:50.608Z,8.70
2017-10-11T21:11:18.168Z,8.60
2017-10-11T21:13:45.685Z,8.60
2017-10-11T21:16:13.668Z,8.60
2017-10-11T21:18:41.976Z,8.60
2017-10-11T21:21:10.311Z,8.60
2017-10-11T21:23:38.344Z,8.50
2017-10-11T21:26:06.300Z,8.60
2017-10-11T21:28:33.816Z,8.60
2017-10-11T21:31:01.397Z,8.50
2017-10-11T21:33:29.106Z,8.40
2017-10-11T21:35:57.388Z,8.30
2017-10-11T21:38:24.949Z,8.30
2017-10-11T21:40:52.488Z,8.20
2017-10-11T21:43:20.112Z,8.20
2017-10-11T21:45:47.619Z,8.20
2017-10-11T21:48:15.116Z,8.20
2017-10-11T21:50:43.055Z,8.20
2017-10-11T21:53:10.560Z,8.10
2017-10-11T21:55:38.467Z,8.10
2017-10-11T21:58:06.772Z,8.10
2017-10-11T22:00:34.279Z,8.10
2017-10-11T22:03:02.208Z,8.00
2017-10-11T22:05:30.271Z,8.00
2017-10-11T22:07:58.184Z,8.00
2017-10-11T22:10:25.793Z,7.90
2017-10-11T22:12:53.320Z,7.90
2017-10-11T22:15:21.412Z,8.00
2017-10-11T22:17:49.797Z,7.90
2017-10-11T22:20:17.725Z,7.90
2017-10-11T22:22:45.227Z,7.90
2017-10-11T22:25:13.106Z,7.90
2017-10-11T22:27:40.618Z,7.80
2017-10-11T22:30:08.614Z,7.80
2017-10-11T22:32:36.535Z,7.80
2017-10-11T22:35:04.983Z,7.80
2017-10-11T22:37:32.444Z,7.80
2017-10-11T22:40:00.920Z,7.70
2017-10-11T22:42:28.969Z,7.70
2017-10-11T22:44:56.939Z,7.70
2017-10-11T22:47:24.463Z,7.80
2017-10-11T22:49:52.727Z,7.80
2017-10-11T22:52:21.019Z,7.80
2017-10-11T22:54:49.626Z,7.70
2017-10-11T22:57:17.100Z,7.70
2017-10-11T22:59:44.598Z,7.60
2017-10-11T23:02:12.068Z,7.50
2017-10-11T23:04:39.571Z,7.60
2017-10-11T23:07:07.440Z,7.60
2017-10-11T23:09:35.303Z,7.60
2017-10-11T23:12:02.815Z,7.60
2017-10-11T23:14:30.521Z,7.60
2017-10-11T23:16:58.434Z,7.40
2017-10-11T23:19:25.945Z,7.40
2017-10-11T23:21:53.902Z,7.30
2017-10-11T23:24:22.528Z,7.30
2017-10-11T23:26:50.032Z,7.30
2017-10-11T23:29:17.576Z,7.30
2017-10-11T23:31:45.839Z,7.30
2017-10-11T23:34:13.399Z,7.30
2017-10-11T23:36:41.676Z,7.20
2017-10-11T23:39:09.177Z,7.10
2017-10-11T23:41:36.704Z,7.00
2017-10-11T23:44:05.027Z,6.90
2017-10-11T23:46:32.527Z,6.90
2017-10-11T23:49:00.042Z,6.80
2017-10-11T23:51:27.596Z,6.80
2017-10-11T23:53:55.095Z,6.90
2017-10-11T23:56:22.639Z,6.90
2017-10-11T23:58:50.128Z,6.80
